sensor_id;sensor_type;location;lat;lon;timestamp;P1;durP1;ratioP1;P2;durP2;ratioP2
7541;SDS011;3812;50.006;8.230;2023-02-28T00:00:21;2.90;;;2.63;;
7541;SDS011;3812;50.006;8.230;2023-02-28T00:02:49;2.93;;;2.60;;
7541;SDS011;3812;50.006;8.230;2023-02-28T00:05:17;2.73;;;2.53;;
7541;SDS011;3812;50.006;8.230;2023-02-28T00:07:44;3.23;;;2.93;;
7541;SDS011;3812;50.006;8.230;2023-02-28T00:10:13;4.67;;;3.00;;
7541;SDS011;3812;50.006;8.230;2023-02-28T00:12:42;2.93;;;2.70;;
7541;SDS011;3812;50.006;8.230;2023-02-28T00:15:10;4.50;;;2.80;;
7541;SDS011;3812;50.006;8.230;2023-02-28T00:17:37;3.40;;;3.00;;
7541;SDS011;3812;50.006;8.230;2023-02-28T00:20:05;3.30;;;3.00;;
7541;SDS011;3812;50.006;8.230;2023-02-28T00:22:33;4.17;;;3.23;;
7541;SDS011;3812;50.006;8.230;2023-02-28T00:25:00;3.17;;;2.87;;
7541;SDS011;3812;50.006;8.230;2023-02-28T00:27:28;3.73;;;3.20;;
7541;SDS011;3812;50.006;8.230;2023-02-28T00:29:57;4.23;;;3.17;;
7541;SDS011;3812;50.006;8.230;2023-02-28T00:32:24;3.50;;;3.20;;
7541;SDS011;3812;50.006;8.230;2023-02-28T00:34:51;3.20;;;2.80;;
7541;SDS011;3812;50.006;8.230;2023-02-28T00:37:19;3.47;;;2.90;;
7541;SDS011;3812;50.006;8.230;2023-02-28T00:39:46;4.60;;;3.20;;
7541;SDS011;3812;50.006;8.230;2023-02-28T00:42:15;3.60;;;2.90;;
7541;SDS011;3812;50.006;8.230;2023-02-28T00:44:42;4.30;;;3.07;;
7541;SDS011;3812;50.006;8.230;2023-02-28T00:47:12;3.17;;;2.87;;
7541;SDS011;3812;50.006;8.230;2023-02-28T00:49:39;4.13;;;3.10;;
7541;SDS011;3812;50.006;8.230;2023-02-28T00:52:08;3.20;;;2.90;;
7541;SDS011;3812;50.006;8.230;2023-02-28T00:54:35;3.40;;;3.10;;
7541;SDS011;3812;50.006;8.230;2023-02-28T00:57:02;3.63;;;3.27;;
7541;SDS011;3812;50.006;8.230;2023-02-28T00:59:31;3.70;;;3.30;;
7541;SDS011;3812;50.006;8.230;2023-02-28T01:01:58;3.23;;;2.97;;
7541;SDS011;3812;50.006;8.230;2023-02-28T01:04:27;4.30;;;3.67;;
7541;SDS011;3812;50.006;8.230;2023-02-28T01:06:54;4.77;;;3.00;;
7541;SDS011;3812;50.006;8.230;2023-02-28T01:09:21;4.53;;;3.17;;
7541;SDS011;3812;50.006;8.230;2023-02-28T01:11:48;4.37;;;3.40;;
7541;SDS011;3812;50.006;8.230;2023-02-28T01:14:16;3.30;;;3.00;;
7541;SDS011;3812;50.006;8.230;2023-02-28T01:16:44;3.53;;;3.10;;
7541;SDS011;3812;50.006;8.230;2023-02-28T01:19:11;3.53;;;3.23;;
7541;SDS011;3812;50.006;8.230;2023-02-28T01:21:40;4.03;;;3.33;;
7541;SDS011;3812;50.006;8.230;2023-02-28T01:24:07;3.73;;;3.40;;
7541;SDS011;3812;50.006;8.230;2023-02-28T01:26:35;5.47;;;3.70;;
7541;SDS011;3812;50.006;8.230;2023-02-28T01:29:06;3.87;;;3.53;;
7541;SDS011;3812;50.006;8.230;2023-02-28T01:31:33;4.50;;;3.97;;
7541;SDS011;3812;50.006;8.230;2023-02-28T01:34:00;4.27;;;3.80;;
7541;SDS011;3812;50.006;8.230;2023-02-28T01:36:27;4.20;;;3.80;;
7541;SDS011;3812;50.006;8.230;2023-02-28T01:38:56;5.03;;;4.03;;
7541;SDS011;3812;50.006;8.230;2023-02-28T01:41:26;6.43;;;4.13;;
7541;SDS011;3812;50.006;8.230;2023-02-28T01:43:58;5.57;;;4.00;;
7541;SDS011;3812;50.006;8.230;2023-02-28T01:46:28;6.03;;;4.47;;
7541;SDS011;3812;50.006;8.230;2023-02-28T01:48:58;4.90;;;4.40;;
7541;SDS011;3812;50.006;8.230;2023-02-28T01:51:27;6.47;;;4.67;;
7541;SDS011;3812;50.006;8.230;2023-02-28T01:53:59;6.70;;;4.80;;
7541;SDS011;3812;50.006;8.230;2023-02-28T01:56:27;6.77;;;5.10;;
7541;SDS011;3812;50.006;8.230;2023-02-28T01:58:56;7.47;;;4.90;;
7541;SDS011;3812;50.006;8.230;2023-02-28T02:01:24;5.97;;;4.80;;
7541;SDS011;3812;50.006;8.230;2023-02-28T02:03:53;4.87;;;4.43;;
7541;SDS011;3812;50.006;8.230;2023-02-28T02:06:21;5.50;;;5.00;;
7541;SDS011;3812;50.006;8.230;2023-02-28T02:08:48;5.73;;;5.23;;
7541;SDS011;3812;50.006;8.230;2023-02-28T02:11:19;6.33;;;4.77;;
7541;SDS011;3812;50.006;8.230;2023-02-28T02:13:52;5.37;;;4.60;;
7541;SDS011;3812;50.006;8.230;2023-02-28T02:16:24;5.83;;;5.20;;
7541;SDS011;3812;50.006;8.230;2023-02-28T02:18:57;6.60;;;5.27;;
7541;SDS011;3812;50.006;8.230;2023-02-28T02:21:31;5.03;;;4.60;;
7541;SDS011;3812;50.006;8.230;2023-02-28T02:26:51;5.77;;;4.97;;
7541;SDS011;3812;50.006;8.230;2023-02-28T02:29:27;6.40;;;5.07;;
7541;SDS011;3812;50.006;8.230;2023-02-28T02:32:13;5.60;;;5.10;;
7541;SDS011;3812;50.006;8.230;2023-02-28T02:34:48;5.20;;;4.70;;
7541;SDS011;3812;50.006;8.230;2023-02-28T02:37:22;5.27;;;4.77;;
7541;SDS011;3812;50.006;8.230;2023-02-28T02:39:55;8.20;;;5.20;;
7541;SDS011;3812;50.006;8.230;2023-02-28T02:42:27;6.83;;;5.60;;
7541;SDS011;3812;50.006;8.230;2023-02-28T02:44:56;6.97;;;5.20;;
7541;SDS011;3812;50.006;8.230;2023-02-28T02:47:26;5.53;;;4.97;;
7541;SDS011;3812;50.006;8.230;2023-02-28T02:49:56;6.17;;;5.57;;
7541;SDS011;3812;50.006;8.230;2023-02-28T02:52:28;6.80;;;5.03;;
7541;SDS011;3812;50.006;8.230;2023-02-28T02:54:57;7.07;;;5.50;;
7541;SDS011;3812;50.006;8.230;2023-02-28T02:57:26;6.00;;;5.40;;
7541;SDS011;3812;50.006;8.230;2023-02-28T02:59:54;6.43;;;5.07;;
7541;SDS011;3812;50.006;8.230;2023-02-28T03:02:22;5.07;;;4.57;;
7541;SDS011;3812;50.006;8.230;2023-02-28T03:04:51;5.30;;;4.83;;
7541;SDS011;3812;50.006;8.230;2023-02-28T03:07:22;5.90;;;5.30;;
7541;SDS011;3812;50.006;8.230;2023-02-28T03:09:50;4.83;;;4.43;;
7541;SDS011;3812;50.006;8.230;2023-02-28T03:12:18;5.80;;;5.10;;
7541;SDS011;3812;50.006;8.230;2023-02-28T03:14:50;5.23;;;4.27;;
7541;SDS011;3812;50.006;8.230;2023-02-28T03:17:30;5.53;;;5.03;;
7541;SDS011;3812;50.006;8.230;2023-02-28T03:20:13;5.63;;;4.57;;
7541;SDS011;3812;50.006;8.230;2023-02-28T03:22:48;5.10;;;4.53;;
7541;SDS011;3812;50.006;8.230;2023-02-28T03:25:20;5.70;;;4.27;;
7541;SDS011;3812;50.006;8.230;2023-02-28T03:27:49;5.10;;;4.60;;
7541;SDS011;3812;50.006;8.230;2023-02-28T03:30:22;4.63;;;4.20;;
7541;SDS011;3812;50.006;8.230;2023-02-28T03:32:51;5.10;;;4.30;;
7541;SDS011;3812;50.006;8.230;2023-02-28T03:35:21;7.10;;;4.17;;
7541;SDS011;3812;50.006;8.230;2023-02-28T03:37:52;4.50;;;4.10;;
7541;SDS011;3812;50.006;8.230;2023-02-28T03:40:21;4.80;;;4.30;;
7541;SDS011;3812;50.006;8.230;2023-02-28T03:42:51;4.87;;;4.47;;
7541;SDS011;3812;50.006;8.230;2023-02-28T03:45:21;6.27;;;4.57;;
7541;SDS011;3812;50.006;8.230;2023-02-28T03:47:51;4.67;;;4.27;;
7541;SDS011;3812;50.006;8.230;2023-02-28T03:50:20;4.93;;;4.43;;
7541;SDS011;3812;50.006;8.230;2023-02-28T03:52:49;5.07;;;4.47;;
7541;SDS011;3812;50.006;8.230;2023-02-28T03:55:19;4.70;;;4.30;;
7541;SDS011;3812;50.006;8.230;2023-02-28T03:57:50;5.20;;;4.30;;
7541;SDS011;3812;50.006;8.230;2023-02-28T04:00:25;4.87;;;4.37;;
7541;SDS011;3812;50.006;8.230;2023-02-28T04:02:54;4.70;;;4.20;;
7541;SDS011;3812;50.006;8.230;2023-02-28T04:05:22;5.07;;;4.33;;
7541;SDS011;3812;50.006;8.230;2023-02-28T04:07:49;4.90;;;4.40;;
7541;SDS011;3812;50.006;8.230;2023-02-28T04:10:16;4.57;;;4.17;;
7541;SDS011;3812;50.006;8.230;2023-02-28T04:12:45;5.03;;;4.20;;
7541;SDS011;3812;50.006;8.230;2023-02-28T04:15:13;4.50;;;4.10;;
7541;SDS011;3812;50.006;8.230;2023-02-28T04:17:40;4.73;;;4.23;;
7541;SDS011;3812;50.006;8.230;2023-02-28T04:20:08;5.17;;;4.60;;
7541;SDS011;3812;50.006;8.230;2023-02-28T04:22:35;4.10;;;3.80;;
7541;SDS011;3812;50.006;8.230;2023-02-28T04:25:03;4.27;;;3.87;;
7541;SDS011;3812;50.006;8.230;2023-02-28T04:27:31;4.10;;;3.80;;
7541;SDS011;3812;50.006;8.230;2023-02-28T04:30:00;6.97;;;4.13;;
7541;SDS011;3812;50.006;8.230;2023-02-28T04:32:27;4.90;;;3.50;;
7541;SDS011;3812;50.006;8.230;2023-02-28T04:34:54;4.90;;;4.50;;
7541;SDS011;3812;50.006;8.230;2023-02-28T04:37:21;4.70;;;4.10;;
7541;SDS011;3812;50.006;8.230;2023-02-28T04:39:53;4.23;;;3.80;;
7541;SDS011;3812;50.006;8.230;2023-02-28T04:42:21;4.03;;;3.63;;
7541;SDS011;3812;50.006;8.230;2023-02-28T04:44:48;4.83;;;3.80;;
7541;SDS011;3812;50.006;8.230;2023-02-28T04:47:16;4.63;;;4.23;;
7541;SDS011;3812;50.006;8.230;2023-02-28T04:49:44;4.23;;;3.30;;
7541;SDS011;3812;50.006;8.230;2023-02-28T04:52:11;4.13;;;3.73;;
7541;SDS011;3812;50.006;8.230;2023-02-28T04:54:38;4.47;;;3.90;;
7541;SDS011;3812;50.006;8.230;2023-02-28T04:57:05;5.23;;;3.73;;
7541;SDS011;3812;50.006;8.230;2023-02-28T04:59:32;5.13;;;3.90;;
7541;SDS011;3812;50.006;8.230;2023-02-28T05:02:00;4.20;;;3.70;;
7541;SDS011;3812;50.006;8.230;2023-02-28T05:04:33;4.47;;;3.97;;
7541;SDS011;3812;50.006;8.230;2023-02-28T05:07:00;4.00;;;3.30;;
7541;SDS011;3812;50.006;8.230;2023-02-28T05:09:28;3.77;;;3.37;;
7541;SDS011;3812;50.006;8.230;2023-02-28T05:11:55;3.77;;;3.40;;
7541;SDS011;3812;50.006;8.230;2023-02-28T05:14:23;4.70;;;3.57;;
7541;SDS011;3812;50.006;8.230;2023-02-28T05:16:50;5.13;;;3.43;;
7541;SDS011;3812;50.006;8.230;2023-02-28T05:19:17;4.07;;;3.67;;
7541;SDS011;3812;50.006;8.230;2023-02-28T05:21:51;4.20;;;3.80;;
7541;SDS011;3812;50.006;8.230;2023-02-28T05:24:18;4.57;;;3.40;;
7541;SDS011;3812;50.006;8.230;2023-02-28T05:26:48;3.93;;;3.57;;
7541;SDS011;3812;50.006;8.230;2023-02-28T05:29:16;4.00;;;3.60;;
7541;SDS011;3812;50.006;8.230;2023-02-28T05:31:43;4.40;;;3.40;;
7541;SDS011;3812;50.006;8.230;2023-02-28T05:34:10;4.30;;;3.50;;
7541;SDS011;3812;50.006;8.230;2023-02-28T05:36:38;4.33;;;3.37;;
7541;SDS011;3812;50.006;8.230;2023-02-28T05:39:07;3.60;;;3.30;;
7541;SDS011;3812;50.006;8.230;2023-02-28T05:41:38;3.90;;;3.50;;
7541;SDS011;3812;50.006;8.230;2023-02-28T05:44:05;6.33;;;3.90;;
7541;SDS011;3812;50.006;8.230;2023-02-28T05:46:32;3.67;;;3.37;;
7541;SDS011;3812;50.006;8.230;2023-02-28T05:49:00;5.20;;;3.67;;
7541;SDS011;3812;50.006;8.230;2023-02-28T05:51:27;3.53;;;3.23;;
7541;SDS011;3812;50.006;8.230;2023-02-28T05:53:58;5.53;;;3.50;;
7541;SDS011;3812;50.006;8.230;2023-02-28T05:56:26;4.07;;;3.23;;
7541;SDS011;3812;50.006;8.230;2023-02-28T05:58:54;3.93;;;3.30;;
7541;SDS011;3812;50.006;8.230;2023-02-28T06:01:31;4.57;;;3.30;;
7541;SDS011;3812;50.006;8.230;2023-02-28T06:03:58;3.87;;;3.20;;
7541;SDS011;3812;50.006;8.230;2023-02-28T06:06:26;3.83;;;3.20;;
7541;SDS011;3812;50.006;8.230;2023-02-28T06:08:54;3.67;;;3.30;;
7541;SDS011;3812;50.006;8.230;2023-02-28T06:11:22;5.67;;;3.47;;
7541;SDS011;3812;50.006;8.230;2023-02-28T06:13:54;4.13;;;3.70;;
7541;SDS011;3812;50.006;8.230;2023-02-28T06:16:21;5.30;;;3.23;;
7541;SDS011;3812;50.006;8.230;2023-02-28T06:18:49;3.97;;;3.33;;
7541;SDS011;3812;50.006;8.230;2023-02-28T06:21:17;3.90;;;3.40;;
7541;SDS011;3812;50.006;8.230;2023-02-28T06:23:44;3.63;;;3.27;;
7541;SDS011;3812;50.006;8.230;2023-02-28T06:26:12;4.00;;;3.60;;
7541;SDS011;3812;50.006;8.230;2023-02-28T06:28:39;4.43;;;3.10;;
7541;SDS011;3812;50.006;8.230;2023-02-28T06:31:08;4.80;;;3.30;;
7541;SDS011;3812;50.006;8.230;2023-02-28T06:33:35;4.17;;;3.17;;
7541;SDS011;3812;50.006;8.230;2023-02-28T06:36:03;4.00;;;3.60;;
7541;SDS011;3812;50.006;8.230;2023-02-28T06:38:31;4.47;;;3.50;;
7541;SDS011;3812;50.006;8.230;2023-02-28T06:40:59;5.37;;;3.50;;
7541;SDS011;3812;50.006;8.230;2023-02-28T06:43:27;3.50;;;3.20;;
7541;SDS011;3812;50.006;8.230;2023-02-28T06:45:54;4.00;;;3.17;;
7541;SDS011;3812;50.006;8.230;2023-02-28T06:48:23;4.70;;;3.33;;
7541;SDS011;3812;50.006;8.230;2023-02-28T06:50:51;7.43;;;3.70;;
7541;SDS011;3812;50.006;8.230;2023-02-28T06:53:18;4.53;;;3.63;;
7541;SDS011;3812;50.006;8.230;2023-02-28T06:55:45;4.07;;;3.67;;
7541;SDS011;3812;50.006;8.230;2023-02-28T06:58:12;4.33;;;3.17;;
7541;SDS011;3812;50.006;8.230;2023-02-28T07:00:40;3.93;;;3.30;;
7541;SDS011;3812;50.006;8.230;2023-02-28T07:03:08;4.50;;;3.23;;
7541;SDS011;3812;50.006;8.230;2023-02-28T07:05:38;4.40;;;3.27;;
7541;SDS011;3812;50.006;8.230;2023-02-28T07:08:05;5.47;;;3.67;;
7541;SDS011;3812;50.006;8.230;2023-02-28T07:10:33;4.17;;;3.07;;
7541;SDS011;3812;50.006;8.230;2023-02-28T07:13:00;6.27;;;3.33;;
7541;SDS011;3812;50.006;8.230;2023-02-28T07:15:27;3.30;;;3.00;;
7541;SDS011;3812;50.006;8.230;2023-02-28T07:17:55;4.50;;;3.27;;
7541;SDS011;3812;50.006;8.230;2023-02-28T07:20:22;3.90;;;3.40;;
7541;SDS011;3812;50.006;8.230;2023-02-28T07:22:51;4.27;;;3.10;;
7541;SDS011;3812;50.006;8.230;2023-02-28T07:25:21;3.87;;;2.73;;
7541;SDS011;3812;50.006;8.230;2023-02-28T07:27:49;3.47;;;3.03;;
7541;SDS011;3812;50.006;8.230;2023-02-28T07:30:16;3.23;;;2.67;;
7541;SDS011;3812;50.006;8.230;2023-02-28T07:32:44;6.37;;;2.90;;
7541;SDS011;3812;50.006;8.230;2023-02-28T07:35:11;4.83;;;3.23;;
7541;SDS011;3812;50.006;8.230;2023-02-28T07:37:40;2.90;;;2.70;;
7541;SDS011;3812;50.006;8.230;2023-02-28T07:40:10;3.97;;;2.90;;
7541;SDS011;3812;50.006;8.230;2023-02-28T07:42:38;4.90;;;3.50;;
7541;SDS011;3812;50.006;8.230;2023-02-28T07:45:06;4.60;;;3.23;;
7541;SDS011;3812;50.006;8.230;2023-02-28T07:47:33;3.60;;;3.30;;
7541;SDS011;3812;50.006;8.230;2023-02-28T07:50:01;3.67;;;2.80;;
7541;SDS011;3812;50.006;8.230;2023-02-28T07:52:28;4.27;;;3.57;;
7541;SDS011;3812;50.006;8.230;2023-02-28T07:54:55;4.37;;;2.90;;
7541;SDS011;3812;50.006;8.230;2023-02-28T07:57:24;3.67;;;2.77;;
7541;SDS011;3812;50.006;8.230;2023-02-28T07:59:51;3.40;;;3.10;;
7541;SDS011;3812;50.006;8.230;2023-02-28T08:02:18;3.87;;;3.47;;
7541;SDS011;3812;50.006;8.230;2023-02-28T08:04:46;4.70;;;3.07;;
7541;SDS011;3812;50.006;8.230;2023-02-28T08:07:14;3.20;;;2.67;;
7541;SDS011;3812;50.006;8.230;2023-02-28T08:09:41;3.90;;;3.00;;
7541;SDS011;3812;50.006;8.230;2023-02-28T08:12:09;4.47;;;3.10;;
7541;SDS011;3812;50.006;8.230;2023-02-28T08:14:38;3.53;;;3.23;;
7541;SDS011;3812;50.006;8.230;2023-02-28T08:17:06;4.73;;;3.20;;
7541;SDS011;3812;50.006;8.230;2023-02-28T08:19:33;8.07;;;3.23;;
7541;SDS011;3812;50.006;8.230;2023-02-28T08:22:00;5.37;;;3.30;;
7541;SDS011;3812;50.006;8.230;2023-02-28T08:24:27;4.80;;;3.43;;
7541;SDS011;3812;50.006;8.230;2023-02-28T08:26:55;3.97;;;3.27;;
7541;SDS011;3812;50.006;8.230;2023-02-28T08:29:23;4.17;;;3.40;;
7541;SDS011;3812;50.006;8.230;2023-02-28T08:31:51;3.80;;;3.00;;
7541;SDS011;3812;50.006;8.230;2023-02-28T08:34:18;4.60;;;3.37;;
7541;SDS011;3812;50.006;8.230;2023-02-28T08:36:46;4.27;;;3.20;;
7541;SDS011;3812;50.006;8.230;2023-02-28T08:39:13;5.13;;;3.50;;
7541;SDS011;3812;50.006;8.230;2023-02-28T08:41:41;3.50;;;3.20;;
7541;SDS011;3812;50.006;8.230;2023-02-28T08:44:09;4.90;;;3.27;;
7541;SDS011;3812;50.006;8.230;2023-02-28T08:46:36;4.20;;;3.80;;
7541;SDS011;3812;50.006;8.230;2023-02-28T08:49:04;3.83;;;3.43;;
7541;SDS011;3812;50.006;8.230;2023-02-28T08:51:32;4.30;;;3.30;;
7541;SDS011;3812;50.006;8.230;2023-02-28T08:54:00;4.07;;;3.67;;
7541;SDS011;3812;50.006;8.230;2023-02-28T08:56:27;4.10;;;3.50;;
7541;SDS011;3812;50.006;8.230;2023-02-28T08:58:55;4.50;;;3.40;;
7541;SDS011;3812;50.006;8.230;2023-02-28T09:01:24;5.07;;;3.70;;
7541;SDS011;3812;50.006;8.230;2023-02-28T09:03:52;5.10;;;3.50;;
7541;SDS011;3812;50.006;8.230;2023-02-28T09:06:22;4.13;;;3.57;;
7541;SDS011;3812;50.006;8.230;2023-02-28T09:08:49;6.13;;;3.77;;
7541;SDS011;3812;50.006;8.230;2023-02-28T09:11:17;5.20;;;3.53;;
7541;SDS011;3812;50.006;8.230;2023-02-28T09:13:45;3.73;;;3.43;;
7541;SDS011;3812;50.006;8.230;2023-02-28T09:16:13;5.43;;;3.63;;
7541;SDS011;3812;50.006;8.230;2023-02-28T09:18:41;4.80;;;3.90;;
7541;SDS011;3812;50.006;8.230;2023-02-28T09:21:10;4.27;;;3.50;;
7541;SDS011;3812;50.006;8.230;2023-02-28T09:23:40;4.87;;;3.57;;
7541;SDS011;3812;50.006;8.230;2023-02-28T09:26:11;4.57;;;3.73;;
7541;SDS011;3812;50.006;8.230;2023-02-28T09:28:39;5.70;;;4.33;;
7541;SDS011;3812;50.006;8.230;2023-02-28T09:31:10;4.00;;;3.60;;
7541;SDS011;3812;50.006;8.230;2023-02-28T09:33:38;4.73;;;3.53;;
7541;SDS011;3812;50.006;8.230;2023-02-28T09:36:06;5.00;;;3.50;;
7541;SDS011;3812;50.006;8.230;2023-02-28T09:38:33;7.13;;;3.60;;
7541;SDS011;3812;50.006;8.230;2023-02-28T09:41:03;3.63;;;3.30;;
7541;SDS011;3812;50.006;8.230;2023-02-28T09:43:36;4.23;;;3.83;;
7541;SDS011;3812;50.006;8.230;2023-02-28T09:46:05;4.80;;;3.80;;
7541;SDS011;3812;50.006;8.230;2023-02-28T09:48:37;4.13;;;3.73;;
7541;SDS011;3812;50.006;8.230;2023-02-28T09:51:11;5.13;;;3.60;;
7541;SDS011;3812;50.006;8.230;2023-02-28T09:53:40;4.43;;;3.20;;
7541;SDS011;3812;50.006;8.230;2023-02-28T09:56:10;4.10;;;3.40;;
7541;SDS011;3812;50.006;8.230;2023-02-28T09:58:39;5.03;;;3.77;;
7541;SDS011;3812;50.006;8.230;2023-02-28T10:01:09;3.97;;;3.57;;
7541;SDS011;3812;50.006;8.230;2023-02-28T10:03:38;4.23;;;3.40;;
7541;SDS011;3812;50.006;8.230;2023-02-28T10:06:08;4.30;;;3.50;;
7541;SDS011;3812;50.006;8.230;2023-02-28T10:08:38;4.23;;;3.60;;
7541;SDS011;3812;50.006;8.230;2023-02-28T10:11:12;5.63;;;3.60;;
7541;SDS011;3812;50.006;8.230;2023-02-28T10:13:46;4.77;;;3.50;;
7541;SDS011;3812;50.006;8.230;2023-02-28T10:16:16;4.23;;;3.40;;
7541;SDS011;3812;50.006;8.230;2023-02-28T10:18:46;4.07;;;3.30;;
7541;SDS011;3812;50.006;8.230;2023-02-28T10:21:16;11.43;;;3.50;;
7541;SDS011;3812;50.006;8.230;2023-02-28T10:23:44;4.50;;;3.40;;
7541;SDS011;3812;50.006;8.230;2023-02-28T10:26:14;3.80;;;3.20;;
7541;SDS011;3812;50.006;8.230;2023-02-28T10:28:44;4.00;;;3.60;;
7541;SDS011;3812;50.006;8.230;2023-02-28T10:31:11;4.37;;;3.70;;
7541;SDS011;3812;50.006;8.230;2023-02-28T10:33:41;4.40;;;3.50;;
7541;SDS011;3812;50.006;8.230;2023-02-28T10:36:10;3.67;;;3.33;;
7541;SDS011;3812;50.006;8.230;2023-02-28T10:38:39;6.83;;;4.00;;
7541;SDS011;3812;50.006;8.230;2023-02-28T10:41:07;5.37;;;3.87;;
7541;SDS011;3812;50.006;8.230;2023-02-28T10:43:37;3.93;;;3.40;;
7541;SDS011;3812;50.006;8.230;2023-02-28T10:46:09;4.27;;;3.43;;
7541;SDS011;3812;50.006;8.230;2023-02-28T10:48:40;3.87;;;3.37;;
7541;SDS011;3812;50.006;8.230;2023-02-28T10:51:09;4.43;;;3.43;;
7541;SDS011;3812;50.006;8.230;2023-02-28T10:53:45;5.23;;;4.13;;
7541;SDS011;3812;50.006;8.230;2023-02-28T10:56:16;4.00;;;3.40;;
7541;SDS011;3812;50.006;8.230;2023-02-28T10:58:54;5.97;;;3.40;;
7541;SDS011;3812;50.006;8.230;2023-02-28T11:01:22;4.90;;;3.40;;
7541;SDS011;3812;50.006;8.230;2023-02-28T11:03:51;4.53;;;3.80;;
7541;SDS011;3812;50.006;8.230;2023-02-28T11:06:19;5.10;;;4.17;;
7541;SDS011;3812;50.006;8.230;2023-02-28T11:08:48;7.17;;;3.90;;
7541;SDS011;3812;50.006;8.230;2023-02-28T11:11:16;5.67;;;4.13;;
7541;SDS011;3812;50.006;8.230;2023-02-28T11:13:44;7.27;;;4.10;;
7541;SDS011;3812;50.006;8.230;2023-02-28T11:16:13;5.03;;;3.93;;
7541;SDS011;3812;50.006;8.230;2023-02-28T11:18:42;6.63;;;3.93;;
7541;SDS011;3812;50.006;8.230;2023-02-28T11:21:15;5.20;;;3.67;;
7541;SDS011;3812;50.006;8.230;2023-02-28T11:23:43;4.40;;;3.93;;
7541;SDS011;3812;50.006;8.230;2023-02-28T11:26:10;5.07;;;4.07;;
7541;SDS011;3812;50.006;8.230;2023-02-28T11:28:39;4.77;;;4.17;;
7541;SDS011;3812;50.006;8.230;2023-02-28T11:31:16;4.10;;;3.70;;
7541;SDS011;3812;50.006;8.230;2023-02-28T11:33:45;4.57;;;3.90;;
7541;SDS011;3812;50.006;8.230;2023-02-28T11:36:16;5.90;;;3.70;;
7541;SDS011;3812;50.006;8.230;2023-02-28T11:38:44;4.67;;;3.60;;
7541;SDS011;3812;50.006;8.230;2023-02-28T11:41:17;4.33;;;3.57;;
7541;SDS011;3812;50.006;8.230;2023-02-28T11:43:53;5.23;;;3.70;;
7541;SDS011;3812;50.006;8.230;2023-02-28T11:46:26;4.40;;;3.30;;
7541;SDS011;3812;50.006;8.230;2023-02-28T11:49:01;4.70;;;4.03;;
7541;SDS011;3812;50.006;8.230;2023-02-28T11:51:32;4.17;;;3.50;;
7541;SDS011;3812;50.006;8.230;2023-02-28T11:54:13;4.43;;;3.50;;
7541;SDS011;3812;50.006;8.230;2023-02-28T11:56:44;4.17;;;3.73;;
7541;SDS011;3812;50.006;8.230;2023-02-28T11:59:18;3.67;;;3.33;;
7541;SDS011;3812;50.006;8.230;2023-02-28T12:01:59;4.77;;;3.60;;
7541;SDS011;3812;50.006;8.230;2023-02-28T12:04:31;6.13;;;3.67;;
7541;SDS011;3812;50.006;8.230;2023-02-28T12:07:03;5.90;;;3.30;;
7541;SDS011;3812;50.006;8.230;2023-02-28T12:09:44;4.77;;;3.83;;
7541;SDS011;3812;50.006;8.230;2023-02-28T12:12:18;3.60;;;3.30;;
7541;SDS011;3812;50.006;8.230;2023-02-28T12:14:50;3.97;;;3.57;;
7541;SDS011;3812;50.006;8.230;2023-02-28T12:17:24;3.60;;;3.00;;
7541;SDS011;3812;50.006;8.230;2023-02-28T12:19:54;3.73;;;3.43;;
7541;SDS011;3812;50.006;8.230;2023-02-28T12:22:30;4.00;;;3.23;;
7541;SDS011;3812;50.006;8.230;2023-02-28T12:25:18;5.10;;;3.50;;
7541;SDS011;3812;50.006;8.230;2023-02-28T12:27:48;4.47;;;3.63;;
7541;SDS011;3812;50.006;8.230;2023-02-28T12:30:19;4.40;;;3.40;;
7541;SDS011;3812;50.006;8.230;2023-02-28T12:32:50;4.13;;;3.70;;
7541;SDS011;3812;50.006;8.230;2023-02-28T12:35:21;4.30;;;3.40;;
7541;SDS011;3812;50.006;8.230;2023-02-28T12:37:51;3.83;;;3.43;;
7541;SDS011;3812;50.006;8.230;2023-02-28T12:40:20;4.87;;;3.90;;
7541;SDS011;3812;50.006;8.230;2023-02-28T12:42:48;4.77;;;3.67;;
7541;SDS011;3812;50.006;8.230;2023-02-28T12:45:18;5.00;;;4.20;;
7541;SDS011;3812;50.006;8.230;2023-02-28T12:47:47;5.30;;;3.90;;
7541;SDS011;3812;50.006;8.230;2023-02-28T12:50:17;4.47;;;3.80;;
7541;SDS011;3812;50.006;8.230;2023-02-28T12:52:47;4.20;;;3.80;;
7541;SDS011;3812;50.006;8.230;2023-02-28T12:55:15;5.00;;;4.07;;
7541;SDS011;3812;50.006;8.230;2023-02-28T12:57:45;5.20;;;4.10;;
7541;SDS011;3812;50.006;8.230;2023-02-28T13:00:16;5.33;;;4.20;;
7541;SDS011;3812;50.006;8.230;2023-02-28T13:08:22;4.97;;;4.37;;
7541;SDS011;3812;50.006;8.230;2023-02-28T13:10:52;4.47;;;4.00;;
7541;SDS011;3812;50.006;8.230;2023-02-28T13:13:20;4.70;;;3.83;;
7541;SDS011;3812;50.006;8.230;2023-02-28T13:15:59;4.37;;;3.90;;
7541;SDS011;3812;50.006;8.230;2023-02-28T13:18:28;5.03;;;3.57;;
7541;SDS011;3812;50.006;8.230;2023-02-28T13:20:56;4.80;;;3.90;;
7541;SDS011;3812;50.006;8.230;2023-02-28T13:23:39;4.63;;;3.97;;
7541;SDS011;3812;50.006;8.230;2023-02-28T13:26:06;5.40;;;4.43;;
7541;SDS011;3812;50.006;8.230;2023-02-28T13:34:20;5.03;;;4.10;;
7541;SDS011;3812;50.006;8.230;2023-02-28T13:36:47;4.60;;;4.00;;
7541;SDS011;3812;50.006;8.230;2023-02-28T13:42:11;6.30;;;4.53;;
7541;SDS011;3812;50.006;8.230;2023-02-28T13:47:32;6.63;;;4.50;;
7541;SDS011;3812;50.006;8.230;2023-02-28T13:50:23;5.10;;;4.60;;
7541;SDS011;3812;50.006;8.230;2023-02-28T13:52:57;6.10;;;4.53;;
7541;SDS011;3812;50.006;8.230;2023-02-28T13:55:31;5.20;;;4.43;;
7541;SDS011;3812;50.006;8.230;2023-02-28T13:58:07;5.70;;;4.40;;
7541;SDS011;3812;50.006;8.230;2023-02-28T14:00:43;4.90;;;4.40;;
7541;SDS011;3812;50.006;8.230;2023-02-28T14:03:15;5.00;;;4.50;;
7541;SDS011;3812;50.006;8.230;2023-02-28T14:05:46;5.23;;;4.57;;
7541;SDS011;3812;50.006;8.230;2023-02-28T14:08:14;4.87;;;4.37;;
7541;SDS011;3812;50.006;8.230;2023-02-28T14:10:44;5.30;;;4.80;;
7541;SDS011;3812;50.006;8.230;2023-02-28T14:13:14;5.13;;;4.43;;
7541;SDS011;3812;50.006;8.230;2023-02-28T14:15:45;4.70;;;4.30;;
7541;SDS011;3812;50.006;8.230;2023-02-28T14:18:21;4.97;;;4.23;;
7541;SDS011;3812;50.006;8.230;2023-02-28T14:20:49;4.50;;;4.10;;
7541;SDS011;3812;50.006;8.230;2023-02-28T14:26:02;5.07;;;4.60;;
7541;SDS011;3812;50.006;8.230;2023-02-28T14:28:39;5.23;;;4.33;;
7541;SDS011;3812;50.006;8.230;2023-02-28T14:31:10;4.30;;;3.90;;
7541;SDS011;3812;50.006;8.230;2023-02-28T14:33:42;4.67;;;4.00;;
7541;SDS011;3812;50.006;8.230;2023-02-28T14:36:14;5.03;;;3.80;;
7541;SDS011;3812;50.006;8.230;2023-02-28T14:38:44;4.67;;;4.13;;
7541;SDS011;3812;50.006;8.230;2023-02-28T14:41:18;5.00;;;4.43;;
7541;SDS011;3812;50.006;8.230;2023-02-28T14:43:49;5.13;;;4.63;;
7541;SDS011;3812;50.006;8.230;2023-02-28T14:46:17;6.63;;;4.63;;
7541;SDS011;3812;50.006;8.230;2023-02-28T14:48:45;4.83;;;4.33;;
7541;SDS011;3812;50.006;8.230;2023-02-28T14:51:17;4.93;;;4.43;;
7541;SDS011;3812;50.006;8.230;2023-02-28T14:53:48;4.57;;;4.13;;
7541;SDS011;3812;50.006;8.230;2023-02-28T14:56:22;5.83;;;4.43;;
7541;SDS011;3812;50.006;8.230;2023-02-28T14:58:52;5.43;;;4.50;;
7541;SDS011;3812;50.006;8.230;2023-02-28T15:01:20;4.83;;;4.30;;
7541;SDS011;3812;50.006;8.230;2023-02-28T15:03:48;4.30;;;3.90;;
7541;SDS011;3812;50.006;8.230;2023-02-28T15:06:16;5.83;;;4.40;;
7541;SDS011;3812;50.006;8.230;2023-02-28T15:08:43;4.77;;;4.30;;
7541;SDS011;3812;50.006;8.230;2023-02-28T15:11:13;5.93;;;4.10;;
7541;SDS011;3812;50.006;8.230;2023-02-28T15:13:41;4.70;;;4.30;;
7541;SDS011;3812;50.006;8.230;2023-02-28T15:16:11;6.30;;;4.47;;
7541;SDS011;3812;50.006;8.230;2023-02-28T15:18:44;6.43;;;5.00;;
7541;SDS011;3812;50.006;8.230;2023-02-28T15:21:14;4.80;;;4.27;;
7541;SDS011;3812;50.006;8.230;2023-02-28T15:23:42;5.10;;;4.60;;
7541;SDS011;3812;50.006;8.230;2023-02-28T15:26:12;4.50;;;4.10;;
7541;SDS011;3812;50.006;8.230;2023-02-28T15:28:41;5.00;;;4.50;;
7541;SDS011;3812;50.006;8.230;2023-02-28T15:31:19;6.60;;;4.67;;
7541;SDS011;3812;50.006;8.230;2023-02-28T15:33:54;5.20;;;4.30;;
7541;SDS011;3812;50.006;8.230;2023-02-28T15:36:23;5.47;;;4.40;;
7541;SDS011;3812;50.006;8.230;2023-02-28T15:38:52;5.53;;;4.93;;
7541;SDS011;3812;50.006;8.230;2023-02-28T15:41:24;5.80;;;4.90;;
7541;SDS011;3812;50.006;8.230;2023-02-28T15:46:35;4.60;;;4.20;;
7541;SDS011;3812;50.006;8.230;2023-02-28T15:49:02;6.07;;;4.53;;
7541;SDS011;3812;50.006;8.230;2023-02-28T15:51:31;5.17;;;4.67;;
7541;SDS011;3812;50.006;8.230;2023-02-28T15:53:59;5.43;;;4.87;;